This is the latest recevied weather packets stored in our database for station/object N5ATR. If no packets are shown the sender has not sent any weather packets the latest 10 day(s).
| Time | Temp. | Humidity | Pressure | Rain* | Wind** | Luminosity | Snow |
|---|---|---|---|---|---|---|---|
| 1778105204 | 15.56° C | 32% | 1013.2 hPa | 0 mm | - | 169 W/m² | - |
| 1778104898 | 14.44° C | 35% | 1013.3 hPa | 0 mm | - | 474 W/m² | - |
| 1778104596 | 15.56° C | 33% | 1013 hPa | 0 mm | - | 154 W/m² | - |
| 1778104291 | 13.89° C | 36% | 1013 hPa | 0 mm | - | 526 W/m² | - |
| 1778103988 | 15° C | 38% | 1013.2 hPa | 0 mm | - | 169 W/m² | - |
| 1778103686 | 13.89° C | 39% | 1013.2 hPa | 0 mm | - | 189 W/m² | - |
| 1778103384 | 15° C | 36% | 1013.3 hPa | 0 mm | - | 244 W/m² | - |
| 1778103081 | 15.56° C | 35% | 1013 hPa | 0 mm | - | 157 W/m² | - |
| 1778102778 | 15° C | 34% | 1012.7 hPa | 0 mm | - | 274 W/m² | - |
| 1778102473 | 16.67° C | 32% | 1013 hPa | 0 mm | - | 127 W/m² | - |
| 1778102169 | 16.11° C | 35% | 1013.2 hPa | 0 mm | - | 703 W/m² | - |
| 1778101866 | 16.11° C | 35% | 1013.3 hPa | 0 mm | - | 711 W/m² | - |
| 1778101562 | 13.89° C | 40% | 1013.7 hPa | 0 mm | - | 554 W/m² | - |
| 1778101259 | 13.33° C | 41% | 1013.4 hPa | 0 mm | - | 119 W/m² | - |
| 1778100956 | 15.56° C | 39% | 1013.7 hPa | 0 mm | - | 192 W/m² | - |
| 1778100651 | 15° C | 40% | 1013.7 hPa | 0 mm | - | 769 W/m² | - |
| 1778100349 | 13.33° C | 39% | 1013.4 hPa | 0 mm | - | 129 W/m² | - |
| 1778100046 | 13.33° C | 39% | 1013.4 hPa | 0 mm | - | 129 W/m² | - |
| 1778099744 | 13.89° C | 39% | 1013.7 hPa | 0 mm | - | 134 W/m² | - |
| 1778099440 | 15° C | 37% | 1013.7 hPa | 0 mm | - | 179 W/m² | - |
| 1778099138 | 16.11° C | 36% | 1013.3 hPa | 0 mm | - | 717 W/m² | - |
| 1778098834 | 15° C | 36% | 1013.7 hPa | 0 mm | - | 547 W/m² | - |
| 1778098532 | 15.56° C | 36% | 1013.4 hPa | 0 mm | - | 894 W/m² | - |
| 1778098228 | 16.11° C | 34% | 1013.4 hPa | 0 mm | - | 944 W/m² | - |
| 1778097924 | 14.44° C | 38% | 1013.5 hPa | 0 mm | - | 676 W/m² | - |
* Rain latest hour (hover to see other rain measurements)
** Current wind speed in m/s (hover to see current wind gust speed)